Terminal Aerodrome Forecast
Issued by NWS

Home | Current Version | Previous Version | Text Only | Print | Product List | Glossary On
Versions: 1 2 3 4 5 6 7 8 9 10 11 12 13 14 15
000
FTUS45 KTFX 250500
TAFBZN
TAF
KBZN 250520Z 2506/2606 11006KT P6SM BKN150
     FM251400 VRB06KT P6SM OVC080
     FM251800 20010KT P6SM -SHRA OVC035
     FM260200 19006KT P6SM SCT035 OVC060=

USA.gov is the U.S. government's official web portal to all federal, state and local government web resources and services.